createdAt,value
2018-11-04T00:01:36.332Z,77.80
2018-11-04T00:04:05.324Z,77.86
2018-11-04T00:06:34.076Z,78.53
2018-11-04T00:09:02.951Z,78.99
2018-11-04T00:11:31.782Z,78.86
2018-11-04T00:14:00.575Z,78.61
2018-11-04T00:16:36.182Z,78.42
2018-11-04T00:19:05.404Z,78.89
2018-11-04T00:21:34.312Z,79.24
2018-11-04T00:24:03.233Z,79.14
2018-11-04T00:26:32.162Z,78.93
2018-11-04T00:29:00.926Z,78.36
2018-11-04T00:31:29.718Z,78.80
2018-11-04T00:33:58.466Z,78.11
2018-11-04T00:36:27.255Z,78.24
2018-11-04T00:38:56.039Z,78.22
2018-11-04T00:41:24.884Z,78.75
2018-11-04T00:43:53.808Z,77.68
2018-11-04T00:46:22.629Z,78.33
2018-11-04T00:48:51.417Z,77.84
2018-11-04T00:51:20.177Z,78.37
2018-11-04T00:53:48.974Z,78.54
2018-11-04T00:56:17.763Z,78.28
2018-11-04T00:58:46.575Z,78.60
2018-11-04T01:01:15.382Z,78.04
2018-11-04T01:03:44.147Z,77.63
2018-11-04T01:06:12.918Z,77.86
2018-11-04T01:08:41.712Z,77.82
2018-11-04T01:11:10.483Z,77.97
2018-11-04T01:13:39.242Z,78.07
2018-11-04T01:16:08.030Z,77.11
2018-11-04T01:18:36.849Z,77.39
2018-11-04T01:21:05.939Z,77.32
2018-11-04T01:23:34.905Z,77.41
2018-11-04T01:26:03.702Z,77.78
2018-11-04T01:28:32.479Z,77.50
2018-11-04T01:31:01.245Z,76.43
2018-11-04T01:33:29.974Z,77.08
2018-11-04T01:35:59.059Z,77.44
2018-11-04T01:38:27.864Z,77.07
2018-11-04T01:40:56.650Z,77.04
2018-11-04T01:43:25.434Z,76.99
2018-11-04T01:45:54.232Z,77.33
2018-11-04T01:48:23.055Z,76.83
2018-11-04T01:51:07.494Z,76.55
2018-11-04T01:53:36.798Z,76.23
2018-11-04T01:56:05.859Z,76.41
2018-11-04T01:58:34.642Z,76.41
2018-11-04T02:01:03.469Z,75.91
2018-11-04T02:03:32.892Z,75.87
2018-11-04T02:06:01.598Z,75.75
2018-11-04T02:08:30.346Z,75.00
2018-11-04T02:10:59.155Z,75.15
2018-11-04T02:13:27.935Z,75.03
2018-11-04T02:15:56.768Z,74.85
2018-11-04T02:18:25.523Z,75.21
2018-11-04T02:20:54.363Z,74.91
2018-11-04T02:23:23.338Z,74.86
2018-11-04T02:25:52.135Z,74.56
2018-11-04T02:28:20.902Z,74.27
2018-11-04T02:30:49.692Z,73.97
2018-11-04T02:33:18.474Z,73.33
2018-11-04T02:35:47.249Z,73.15
2018-11-04T02:38:16.018Z,73.63
2018-11-04T02:40:44.962Z,73.55
2018-11-04T02:43:13.723Z,73.71
2018-11-04T02:45:42.566Z,73.71
2018-11-04T02:48:11.378Z,74.00
2018-11-04T02:50:40.167Z,73.73
2018-11-04T02:53:08.928Z,73.35
2018-11-04T02:55:37.717Z,73.54
2018-11-04T02:58:06.659Z,72.98
2018-11-04T03:00:35.588Z,73.01
2018-11-04T03:03:04.324Z,72.93
2018-11-04T03:05:33.147Z,72.57
2018-11-04T03:08:01.897Z,73.07
2018-11-04T03:10:30.680Z,73.32
2018-11-04T03:12:59.467Z,73.42
2018-11-04T03:15:28.284Z,74.04
2018-11-04T03:17:57.099Z,74.04
2018-11-04T03:20:25.994Z,74.46
2018-11-04T03:22:55.789Z,74.36
2018-11-04T03:25:24.548Z,74.24
2018-11-04T03:27:53.342Z,74.42
2018-11-04T03:30:22.302Z,74.26
2018-11-04T03:32:51.091Z,74.25
2018-11-04T03:35:19.951Z,74.53
2018-11-04T03:37:48.719Z,74.75
2018-11-04T03:40:18.532Z,74.41
2018-11-04T03:42:47.402Z,74.98
2018-11-04T03:45:16.116Z,74.58
2018-11-04T03:47:44.875Z,74.40
2018-11-04T03:50:13.737Z,74.41
2018-11-04T03:52:42.922Z,74.64
2018-11-04T03:55:11.666Z,74.67
2018-11-04T03:57:40.459Z,74.52
2018-11-04T04:00:11.963Z,74.54
2018-11-04T04:02:41.345Z,74.49
2018-11-04T04:05:10.909Z,74.80
2018-11-04T04:07:39.727Z,74.38
2018-11-04T04:10:09.890Z,74.42
2018-11-04T04:12:38.895Z,73.91
2018-11-04T04:15:09.160Z,74.06
2018-11-04T04:17:37.889Z,74.06
2018-11-04T04:20:07.686Z,74.72
2018-11-04T04:22:37.051Z,75.14
2018-11-04T04:25:09.227Z,75.29
2018-11-04T04:27:37.987Z,75.63
2018-11-04T04:30:11.558Z,75.86
2018-11-04T04:32:40.338Z,75.68
2018-11-04T04:35:10.135Z,75.60
2018-11-04T04:37:38.980Z,75.51
2018-11-04T04:40:08.009Z,75.77
2018-11-04T04:42:36.774Z,75.54
2018-11-04T04:45:06.124Z,75.33
2018-11-04T04:47:35.414Z,75.04
2018-11-04T04:50:04.550Z,75.03
2018-11-04T04:52:33.399Z,75.23
2018-11-04T04:55:02.408Z,75.49
2018-11-04T04:57:31.208Z,75.74
2018-11-04T04:59:59.990Z,75.23
2018-11-04T05:02:28.774Z,74.89
2018-11-04T05:04:57.684Z,74.67
2018-11-04T05:07:26.537Z,74.32
2018-11-04T05:09:55.312Z,74.35
2018-11-04T05:12:24.085Z,74.32
2018-11-04T05:14:52.846Z,74.42
2018-11-04T05:17:21.634Z,73.47
2018-11-04T05:19:50.413Z,73.54
2018-11-04T05:22:19.183Z,73.97
2018-11-04T05:24:47.954Z,73.13
2018-11-04T05:27:16.779Z,73.03
2018-11-04T05:29:45.547Z,73.04
2018-11-04T05:32:14.318Z,72.24
2018-11-04T05:34:43.054Z,72.48
2018-11-04T05:37:11.803Z,72.36
2018-11-04T05:39:40.569Z,72.62
2018-11-04T05:42:09.411Z,72.25
2018-11-04T05:44:38.406Z,71.92
2018-11-04T05:47:07.914Z,71.54
2018-11-04T05:49:36.881Z,71.03
2018-11-04T05:52:05.688Z,71.46
2018-11-04T05:54:34.537Z,71.25
2018-11-04T05:57:03.357Z,71.24
2018-11-04T05:59:32.172Z,71.41
2018-11-04T06:02:01.057Z,71.37
2018-11-04T06:04:30.461Z,71.60
2018-11-04T06:07:00.317Z,70.85
2018-11-04T06:09:29.750Z,70.12
2018-11-04T06:11:58.564Z,70.24
2018-11-04T06:14:27.436Z,69.99
2018-11-04T06:16:56.371Z,70.46
2018-11-04T06:19:26.119Z,70.11
2018-11-04T06:21:55.115Z,70.21
2018-11-04T06:24:24.048Z,69.31
2018-11-04T06:26:52.841Z,69.66
2018-11-04T06:29:21.994Z,69.44
2018-11-04T06:31:50.787Z,68.73
2018-11-04T06:34:19.698Z,68.35
2018-11-04T06:36:48.710Z,68.19
2018-11-04T06:39:18.308Z,68.56
2018-11-04T06:41:47.110Z,68.38
2018-11-04T06:44:16.138Z,67.53
2018-11-04T06:46:44.919Z,68.10
2018-11-04T06:49:13.881Z,67.70
2018-11-04T06:51:42.823Z,67.21
2018-11-04T06:54:11.913Z,67.25
2018-11-04T06:56:40.763Z,67.35
2018-11-04T06:59:09.578Z,66.55
2018-11-04T07:01:38.440Z,66.71
2018-11-04T07:04:17.257Z,66.56
2018-11-04T07:06:46.582Z,65.67
2018-11-04T07:09:16.483Z,66.13
2018-11-04T07:11:46.262Z,65.19
2018-11-04T07:14:15.608Z,64.98
2018-11-04T07:16:44.783Z,66.09
2018-11-04T07:19:14.327Z,65.57
2018-11-04T07:21:43.242Z,66.24
2018-11-04T07:24:12.452Z,65.08
2018-11-04T07:26:41.786Z,65.33
2018-11-04T07:29:10.770Z,65.12
2018-11-04T07:31:39.670Z,64.45
2018-11-04T07:34:08.635Z,64.70
2018-11-04T07:36:37.459Z,64.42
2018-11-04T07:39:09.431Z,64.20
2018-11-04T07:41:38.203Z,64.31
2018-11-04T07:44:07.021Z,64.78
2018-11-04T07:46:35.815Z,64.53
2018-11-04T07:49:05.162Z,63.95
2018-11-04T07:51:33.970Z,64.58
2018-11-04T07:54:02.922Z,64.78
2018-11-04T07:56:31.714Z,64.29
2018-11-04T07:59:00.757Z,63.98
2018-11-04T08:01:29.802Z,63.65
2018-11-04T08:03:58.591Z,64.14
2018-11-04T08:06:27.339Z,63.34
2018-11-04T08:08:56.115Z,63.52
2018-11-04T08:11:24.916Z,63.69
2018-11-04T08:13:58.590Z,63.04
2018-11-04T08:16:27.677Z,62.87
2018-11-04T08:18:56.471Z,62.86
2018-11-04T08:21:25.389Z,61.87
2018-11-04T08:23:54.319Z,62.24
2018-11-04T08:26:23.122Z,61.78
2018-11-04T08:28:51.923Z,61.30
2018-11-04T08:31:20.763Z,60.78
2018-11-04T08:33:49.604Z,60.42
2018-11-04T08:36:18.389Z,61.13
2018-11-04T08:38:47.196Z,60.95
2018-11-04T08:41:16.070Z,60.59
2018-11-04T08:46:25.383Z,61.12
2018-11-04T08:48:54.171Z,60.82
2018-11-04T08:51:22.945Z,61.09
2018-11-04T08:53:51.744Z,60.28
2018-11-04T08:56:20.579Z,60.33
2018-11-04T08:58:49.419Z,59.02
2018-11-04T09:01:18.320Z,58.84
2018-11-04T09:03:47.144Z,58.37
2018-11-04T09:06:16.048Z,57.94
2018-11-04T09:08:45.168Z,57.72
2018-11-04T09:11:14.105Z,57.28
2018-11-04T09:13:42.969Z,57.21
2018-11-04T09:16:11.894Z,56.15
2018-11-04T09:18:40.860Z,55.14
2018-11-04T09:21:09.732Z,55.55
2018-11-04T09:23:38.646Z,54.26
2018-11-04T09:26:07.751Z,53.40
2018-11-04T09:28:36.480Z,53.74
2018-11-04T09:31:05.392Z,53.12
2018-11-04T09:33:34.302Z,52.42
2018-11-04T09:36:03.180Z,52.08
2018-11-04T09:38:32.031Z,51.72
2018-11-04T09:41:00.784Z,49.67
2018-11-04T09:43:29.546Z,48.38
2018-11-04T09:45:58.347Z,47.95
2018-11-04T09:48:27.165Z,48.10
2018-11-04T09:50:56.747Z,47.85
2018-11-04T09:53:25.519Z,48.19
2018-11-04T09:55:54.354Z,48.53
2018-11-04T09:58:23.114Z,47.81
2018-11-04T10:00:51.889Z,47.91
2018-11-04T10:03:20.671Z,47.63
2018-11-04T10:05:49.452Z,48.06
2018-11-04T10:08:18.255Z,48.15
2018-11-04T10:10:47.043Z,48.88
2018-11-04T10:13:16.105Z,48.53
2018-11-04T10:15:45.138Z,49.48
2018-11-04T10:18:13.894Z,49.29
2018-11-04T10:20:43.217Z,48.93
2018-11-04T10:23:11.716Z,48.86
2018-11-04T10:25:40.532Z,48.75
2018-11-04T10:28:09.332Z,48.45
2018-11-04T10:30:38.095Z,48.49
2018-11-04T10:33:06.976Z,47.20
2018-11-04T10:35:35.781Z,47.04
2018-11-04T10:38:04.638Z,47.75
2018-11-04T10:40:33.386Z,47.55
2018-11-04T10:43:02.167Z,46.80
2018-11-04T10:45:30.957Z,47.20
2018-11-04T10:47:59.714Z,46.35
2018-11-04T10:50:28.624Z,46.17
2018-11-04T10:52:57.390Z,46.17
2018-11-04T10:55:26.218Z,45.33
2018-11-04T10:57:55.027Z,45.35
2018-11-04T11:00:28.930Z,45.17
2018-11-04T11:02:57.655Z,44.35
2018-11-04T11:05:27.001Z,43.84
2018-11-04T11:07:55.938Z,42.61
2018-11-04T11:10:24.782Z,42.78
2018-11-04T11:12:53.562Z,41.01
2018-11-04T11:15:22.394Z,40.00
2018-11-04T11:17:51.182Z,38.74
2018-11-04T11:20:19.930Z,39.20
2018-11-04T11:22:48.852Z,38.40
2018-11-04T11:25:18.163Z,37.20
2018-11-04T11:27:46.946Z,37.36
2018-11-04T11:30:15.862Z,36.68
2018-11-04T11:32:44.754Z,36.00
2018-11-04T11:35:13.502Z,35.61
2018-11-04T11:37:42.238Z,36.10
2018-11-04T11:40:11.259Z,35.55
2018-11-04T11:42:40.122Z,35.21
2018-11-04T11:45:09.739Z,35.43
2018-11-04T11:47:38.623Z,35.40
2018-11-04T11:50:07.719Z,35.46
2018-11-04T11:52:36.558Z,35.50
2018-11-04T11:55:05.882Z,36.14
2018-11-04T11:57:34.719Z,36.04
2018-11-04T12:00:08.138Z,35.20
2018-11-04T12:02:37.182Z,35.32
2018-11-04T12:05:06.490Z,34.33
2018-11-04T12:07:35.410Z,34.02
2018-11-04T12:10:05.315Z,33.64
2018-11-04T12:12:34.138Z,34.25
2018-11-04T12:15:03.062Z,34.18
2018-11-04T12:17:32.013Z,33.85
2018-11-04T12:20:00.973Z,34.13
2018-11-04T12:22:29.798Z,34.42
2018-11-04T12:24:58.593Z,34.20
2018-11-04T12:27:27.395Z,34.51
2018-11-04T12:29:56.235Z,33.71
2018-11-04T12:32:25.015Z,33.37
2018-11-04T12:34:53.826Z,33.57
2018-11-04T12:37:22.685Z,33.49
2018-11-04T12:39:51.440Z,32.70
2018-11-04T12:42:20.258Z,32.90
2018-11-04T12:44:48.998Z,32.69
2018-11-04T12:47:17.791Z,33.36
2018-11-04T12:49:46.570Z,33.13
2018-11-04T12:52:15.445Z,33.03
2018-11-04T12:54:44.337Z,33.42
2018-11-04T12:57:13.116Z,32.67
2018-11-04T12:59:41.979Z,33.02
2018-11-04T13:02:10.864Z,33.27
2018-11-04T13:04:39.666Z,33.32
2018-11-04T13:07:08.807Z,33.21
2018-11-04T13:09:37.626Z,32.62
2018-11-04T13:12:06.451Z,32.87
2018-11-04T13:14:35.221Z,32.34
2018-11-04T13:17:04.106Z,31.78
2018-11-04T13:19:32.956Z,32.57
2018-11-04T13:22:01.750Z,32.24
2018-11-04T13:24:30.510Z,31.56
2018-11-04T13:26:59.280Z,32.13
2018-11-04T13:29:28.256Z,31.84
2018-11-04T13:31:57.030Z,31.67
2018-11-04T13:34:25.813Z,31.97
2018-11-04T13:36:54.582Z,32.39
2018-11-04T13:39:23.400Z,31.60
2018-11-04T13:41:52.179Z,31.33
2018-11-04T13:44:21.032Z,31.97
2018-11-04T13:46:49.843Z,31.87
2018-11-04T13:49:18.633Z,30.93
2018-11-04T13:51:47.636Z,31.64
2018-11-04T13:54:16.419Z,30.96
2018-11-04T13:56:45.291Z,31.42
2018-11-04T13:59:14.101Z,31.34
2018-11-04T14:01:42.926Z,31.64
2018-11-04T14:04:11.722Z,31.71
2018-11-04T14:06:40.493Z,31.81
2018-11-04T14:09:09.731Z,32.88
2018-11-04T14:11:38.625Z,32.87
2018-11-04T14:14:07.412Z,32.34
2018-11-04T14:16:36.206Z,32.37
2018-11-04T14:19:05.168Z,33.01
2018-11-04T14:21:33.966Z,33.16
2018-11-04T14:24:02.747Z,33.05
2018-11-04T14:26:31.586Z,33.74
2018-11-04T14:29:00.392Z,34.10
2018-11-04T14:31:29.491Z,34.37
2018-11-04T14:33:58.285Z,34.56
2018-11-04T14:36:27.113Z,34.96
2018-11-04T14:38:56.460Z,34.49
2018-11-04T14:41:25.268Z,34.91
2018-11-04T14:43:54.094Z,35.07
2018-11-04T14:46:22.840Z,35.59
2018-11-04T14:48:51.672Z,35.74
2018-11-04T14:51:20.396Z,35.66
2018-11-04T14:53:49.156Z,36.94
2018-11-04T14:56:18.053Z,36.19
2018-11-04T14:58:46.822Z,37.01
2018-11-04T15:01:15.635Z,36.60
2018-11-04T15:03:44.576Z,36.81
2018-11-04T15:06:13.336Z,37.21
2018-11-04T15:08:42.138Z,37.29
2018-11-04T15:11:10.898Z,38.01
2018-11-04T15:13:39.928Z,37.83
2018-11-04T15:16:08.736Z,38.19
2018-11-04T15:18:37.652Z,38.79
2018-11-04T15:21:06.535Z,38.55
2018-11-04T15:23:35.345Z,38.89
2018-11-04T15:26:04.131Z,38.98
2018-11-04T15:28:33.171Z,39.34
2018-11-04T15:31:01.940Z,39.99
2018-11-04T15:33:30.729Z,39.68
2018-11-04T15:35:59.517Z,39.56
2018-11-04T15:38:28.344Z,39.77
2018-11-04T15:40:57.219Z,39.79
2018-11-04T15:43:26.034Z,39.92
2018-11-04T15:45:54.851Z,39.77
2018-11-04T15:48:23.695Z,40.69
2018-11-04T15:50:52.611Z,40.05
2018-11-04T15:53:21.419Z,39.69
2018-11-04T15:55:51.072Z,40.29
2018-11-04T15:58:19.935Z,40.26
2018-11-04T16:00:48.777Z,40.31
2018-11-04T16:03:17.559Z,39.58
2018-11-04T16:05:46.327Z,39.78
2018-11-04T16:08:15.346Z,40.10
2018-11-04T16:10:44.085Z,39.41
2018-11-04T16:13:12.882Z,39.49
2018-11-04T16:15:41.687Z,39.15
2018-11-04T16:18:10.763Z,39.28
2018-11-04T16:20:39.666Z,38.98
2018-11-04T16:23:08.455Z,39.06
2018-11-04T16:25:37.298Z,39.91
2018-11-04T16:28:06.706Z,39.27
2018-11-04T16:30:35.474Z,38.97
2018-11-04T16:33:04.264Z,39.25
2018-11-04T16:35:33.239Z,39.68
2018-11-04T16:38:02.404Z,39.58
2018-11-04T16:40:31.278Z,40.13
2018-11-04T16:43:00.019Z,39.93
2018-11-04T16:45:28.795Z,39.92
2018-11-04T16:47:58.131Z,40.31
2018-11-04T16:50:26.992Z,40.82
2018-11-04T16:52:55.830Z,41.29
2018-11-04T16:55:24.620Z,41.92
2018-11-04T16:57:53.399Z,42.42
2018-11-04T17:00:22.205Z,42.06
2018-11-04T17:02:51.079Z,42.11
2018-11-04T17:05:20.016Z,42.63
2018-11-04T17:07:48.947Z,43.17
2018-11-04T17:10:17.735Z,43.37
2018-11-04T17:12:46.905Z,44.28
2018-11-04T17:15:16.076Z,44.06
2018-11-04T17:17:45.044Z,44.71
2018-11-04T17:20:15.887Z,44.65
2018-11-04T17:22:45.084Z,44.81
2018-11-04T17:25:13.954Z,45.28
2018-11-04T17:27:42.922Z,45.81
2018-11-04T17:30:17.408Z,45.83
2018-11-04T17:32:46.568Z,46.37
2018-11-04T17:35:16.800Z,46.06
2018-11-04T17:37:46.455Z,46.31
2018-11-04T17:40:15.882Z,46.61
2018-11-04T17:42:44.806Z,47.47
2018-11-04T17:45:14.956Z,47.16
2018-11-04T17:47:44.180Z,48.05
2018-11-04T17:50:15.001Z,48.54
2018-11-04T17:52:44.293Z,47.83
2018-11-04T17:55:13.078Z,48.68
2018-11-04T17:57:41.879Z,48.80
2018-11-04T18:00:14.337Z,49.40
2018-11-04T18:02:43.734Z,49.67
2018-11-04T18:05:13.256Z,49.62
2018-11-04T18:07:43.314Z,49.77
2018-11-04T18:10:15.115Z,49.87
2018-11-04T18:12:44.052Z,49.72
2018-11-04T18:15:14.074Z,49.92
2018-11-04T18:17:42.863Z,50.16
2018-11-04T18:20:12.228Z,49.91
2018-11-04T18:22:41.045Z,50.66
2018-11-04T18:25:10.961Z,51.01
2018-11-04T18:27:46.626Z,51.43
2018-11-04T18:30:19.370Z,51.56
2018-11-04T18:32:48.159Z,51.17
2018-11-04T18:35:16.985Z,51.61
2018-11-04T18:37:45.791Z,51.40
2018-11-04T18:40:16.501Z,51.46
2018-11-04T18:42:45.846Z,52.19
2018-11-04T18:45:15.895Z,52.57
2018-11-04T18:47:45.083Z,53.04
2018-11-04T18:50:14.903Z,53.99
2018-11-04T18:52:43.939Z,54.59
2018-11-04T18:55:13.607Z,54.34
2018-11-04T18:57:43.220Z,53.98
2018-11-04T19:00:17.249Z,54.52
2018-11-04T19:02:46.614Z,54.78
2018-11-04T19:05:15.444Z,55.41
2018-11-04T19:07:44.509Z,55.24
2018-11-04T19:10:14.684Z,56.34
2018-11-04T19:12:43.933Z,56.55
2018-11-04T19:15:12.776Z,56.10
2018-11-04T19:17:41.630Z,56.81
2018-11-04T19:20:12.231Z,57.74
2018-11-04T19:22:41.158Z,57.86
2018-11-04T19:25:11.172Z,58.50
2018-11-04T19:27:40.146Z,59.47
2018-11-04T19:30:11.849Z,59.02
2018-11-04T19:32:40.711Z,60.14
2018-11-04T19:35:10.620Z,59.93
2018-11-04T19:37:39.791Z,60.44
2018-11-04T19:40:10.023Z,60.99
2018-11-04T19:42:39.161Z,61.51
2018-11-04T19:45:08.843Z,61.62
2018-11-04T19:47:38.608Z,62.25
2018-11-04T19:50:09.395Z,62.88
2018-11-04T19:52:38.205Z,63.09
2018-11-04T19:55:09.041Z,63.32
2018-11-04T19:57:37.814Z,63.68
2018-11-04T20:00:14.488Z,64.01
2018-11-04T20:02:43.261Z,63.74
2018-11-04T20:05:13.112Z,64.96
2018-11-04T20:07:42.156Z,64.82
2018-11-04T20:10:13.977Z,65.31
2018-11-04T20:12:48.026Z,64.79
2018-11-04T20:15:16.849Z,65.32
2018-11-04T20:17:46.223Z,65.47
2018-11-04T20:20:17.074Z,65.04
2018-11-04T20:22:45.999Z,65.40
2018-11-04T20:25:19.907Z,65.15
2018-11-04T20:27:49.718Z,64.43
2018-11-04T20:30:19.750Z,64.90
2018-11-04T20:32:53.806Z,64.39
2018-11-04T20:35:22.617Z,64.90
2018-11-04T20:37:51.381Z,64.13
2018-11-04T20:40:25.323Z,64.12
2018-11-04T20:42:54.155Z,64.40
2018-11-04T20:45:23.002Z,64.52
2018-11-04T20:47:57.012Z,64.47
2018-11-04T20:50:30.954Z,65.20
2018-11-04T20:52:59.777Z,64.99
2018-11-04T20:55:33.822Z,65.37
2018-11-04T20:58:02.717Z,65.35
2018-11-04T21:00:31.610Z,65.30
2018-11-04T21:03:00.439Z,65.41
2018-11-04T21:05:29.326Z,65.06
2018-11-04T21:07:58.162Z,64.79
2018-11-04T21:10:26.909Z,65.02
2018-11-04T21:12:55.678Z,64.61
2018-11-04T21:15:24.483Z,65.11
2018-11-04T21:17:53.266Z,64.89
2018-11-04T21:20:22.226Z,65.24
2018-11-04T21:22:51.065Z,65.12
2018-11-04T21:25:19.855Z,65.89
2018-11-04T21:27:48.921Z,65.50
2018-11-04T21:30:17.907Z,65.63
2018-11-04T21:32:46.701Z,66.27
2018-11-04T21:35:15.528Z,66.81
2018-11-04T21:37:44.752Z,67.27
2018-11-04T21:40:13.618Z,67.48
2018-11-04T21:42:42.728Z,67.68
2018-11-04T21:45:12.969Z,67.88
2018-11-04T21:47:41.987Z,68.10
2018-11-04T21:50:11.630Z,68.26
2018-11-04T21:52:40.585Z,68.32
2018-11-04T21:55:11.421Z,68.06
2018-11-04T21:57:41.335Z,67.60
2018-11-04T22:00:14.589Z,68.13
2018-11-04T22:02:43.598Z,67.60
2018-11-04T22:05:13.110Z,67.33
2018-11-04T22:07:43.124Z,67.96
2018-11-04T22:10:13.901Z,67.21
2018-11-04T22:12:43.005Z,67.74
2018-11-04T22:15:12.159Z,67.56
2018-11-04T22:17:41.764Z,67.65
2018-11-04T22:20:12.396Z,68.02
2018-11-04T22:22:41.279Z,67.94
2018-11-04T22:25:10.917Z,68.20
2018-11-04T22:27:39.745Z,68.39
2018-11-04T22:30:10.059Z,67.88
2018-11-04T22:32:39.494Z,68.13
2018-11-04T22:35:09.939Z,68.60
2018-11-04T22:37:39.006Z,67.62
2018-11-04T22:40:09.399Z,68.94
2018-11-04T22:42:38.313Z,68.79
2018-11-04T22:45:08.406Z,69.11
2018-11-04T22:47:37.226Z,69.17
2018-11-04T22:50:09.189Z,69.36
2018-11-04T22:52:38.141Z,69.66
2018-11-04T22:55:07.039Z,68.72
2018-11-04T22:57:35.839Z,69.45
2018-11-04T23:00:13.739Z,69.22
2018-11-04T23:02:42.636Z,69.53
2018-11-04T23:05:16.650Z,69.37
2018-11-04T23:07:45.833Z,69.04
2018-11-04T23:10:14.915Z,68.80
2018-11-04T23:12:43.666Z,68.70
2018-11-04T23:15:12.463Z,68.76
2018-11-04T23:17:41.226Z,68.32
2018-11-04T23:20:10.028Z,68.30
2018-11-04T23:22:38.964Z,67.88
2018-11-04T23:25:09.891Z,67.51
2018-11-04T23:27:38.959Z,68.13
2018-11-04T23:30:12.634Z,67.28
2018-11-04T23:32:41.677Z,66.93
2018-11-04T23:35:11.197Z,67.14
2018-11-04T23:37:40.162Z,66.50
2018-11-04T23:40:10.033Z,66.78
2018-11-04T23:42:38.840Z,66.88
2018-11-04T23:45:09.289Z,66.70
2018-11-04T23:47:38.415Z,66.79
2018-11-04T23:50:09.235Z,66.46
2018-11-04T23:52:38.055Z,66.94
2018-11-04T23:55:07.658Z,67.05
2018-11-04T23:57:36.462Z,66.37
